createdAt,value
2018-06-14T00:01:59.537Z,12.50
2018-06-14T00:04:28.067Z,12.50
2018-06-14T00:06:56.623Z,12.50
2018-06-14T00:09:25.107Z,12.50
2018-06-14T00:11:53.601Z,12.50
2018-06-14T00:14:22.071Z,12.50
2018-06-14T00:16:50.631Z,12.40
2018-06-14T00:19:19.118Z,12.40
2018-06-14T00:24:15.995Z,12.30
2018-06-14T00:26:44.651Z,12.30
2018-06-14T00:29:13.134Z,12.30
2018-06-14T00:31:41.767Z,12.20
2018-06-14T00:34:10.279Z,12.20
2018-06-14T00:36:38.906Z,12.10
2018-06-14T00:39:07.767Z,12.10
2018-06-14T00:41:36.362Z,12.10
2018-06-14T00:44:04.936Z,12.00
2018-06-14T00:49:01.680Z,12.00
2018-06-14T00:51:30.243Z,12.00
2018-06-14T00:53:58.899Z,12.00
2018-06-14T00:56:27.546Z,12.00
2018-06-14T00:58:56.027Z,12.00
2018-06-14T01:01:24.523Z,12.10
2018-06-14T01:06:21.236Z,12.00
2018-06-14T01:08:49.890Z,12.00
2018-06-14T01:11:18.510Z,12.10
2018-06-14T01:13:46.996Z,12.00
2018-06-14T01:16:15.490Z,12.00
2018-06-14T01:18:44.115Z,12.00
2018-06-14T01:21:12.762Z,12.00
2018-06-14T01:23:41.234Z,12.00
2018-06-14T01:26:09.894Z,11.90
2018-06-14T01:28:38.371Z,11.90
2018-06-14T01:31:07.054Z,11.90
2018-06-14T01:33:35.570Z,11.90
2018-06-14T01:36:04.127Z,11.80
2018-06-14T01:38:32.720Z,11.90
2018-06-14T01:41:01.205Z,11.80
2018-06-14T01:43:29.846Z,11.80
2018-06-14T01:45:58.338Z,11.80
2018-06-14T01:48:26.855Z,11.80
2018-06-14T01:50:55.407Z,11.80
2018-06-14T01:53:24.036Z,11.80
2018-06-14T01:58:21.426Z,11.80
2018-06-14T02:00:50.203Z,11.80
2018-06-14T02:03:18.675Z,11.80
2018-06-14T02:05:47.362Z,11.80
2018-06-14T02:08:15.834Z,11.80
2018-06-14T02:10:44.470Z,11.70
2018-06-14T02:13:12.954Z,11.70
2018-06-14T02:15:41.629Z,11.80
2018-06-14T02:18:10.098Z,11.70
2018-06-14T02:20:38.707Z,11.70
2018-06-14T02:23:07.232Z,11.80
2018-06-14T02:25:35.803Z,11.70
2018-06-14T02:28:04.428Z,11.70
2018-06-14T02:30:32.944Z,11.70
2018-06-14T02:33:01.575Z,11.70
2018-06-14T02:35:30.035Z,11.70
2018-06-14T02:37:58.707Z,11.70
2018-06-14T02:40:27.170Z,11.70
2018-06-14T02:42:55.626Z,11.70
2018-06-14T02:45:24.106Z,11.70
2018-06-14T02:47:52.639Z,11.70
2018-06-14T02:50:21.165Z,11.60
2018-06-14T02:52:49.634Z,11.70
2018-06-14T02:55:18.377Z,11.70
2018-06-14T02:57:46.894Z,11.70
2018-06-14T03:00:15.405Z,11.80
2018-06-14T03:02:43.862Z,11.80
2018-06-14T03:05:12.375Z,11.80
2018-06-14T03:07:40.861Z,11.80
2018-06-14T03:10:09.310Z,11.80
2018-06-14T03:12:37.926Z,11.80
2018-06-14T03:15:06.531Z,11.80
2018-06-14T03:17:35.327Z,11.70
2018-06-14T03:20:04.320Z,11.70
2018-06-14T03:22:33.082Z,11.60
2018-06-14T03:25:01.675Z,11.50
2018-06-14T03:27:30.315Z,11.60
2018-06-14T03:29:58.801Z,11.60
2018-06-14T03:32:27.331Z,11.50
2018-06-14T03:34:55.809Z,11.50
2018-06-14T03:37:24.383Z,11.50
2018-06-14T03:39:52.894Z,11.50
2018-06-14T03:42:21.414Z,11.50
2018-06-14T03:44:50.062Z,11.50
2018-06-14T03:47:18.553Z,11.40
2018-06-14T03:49:47.155Z,11.50
2018-06-14T03:52:15.695Z,11.50
2018-06-14T03:54:44.296Z,11.50
2018-06-14T03:57:12.823Z,11.60
2018-06-14T03:59:41.443Z,11.60
2018-06-14T04:02:09.976Z,11.60
2018-06-14T04:04:38.503Z,11.70
2018-06-14T04:07:07.192Z,11.70
2018-06-14T04:12:04.022Z,11.70
2018-06-14T04:14:32.540Z,11.70
2018-06-14T04:17:01.084Z,11.80
2018-06-14T04:19:29.555Z,11.80
2018-06-14T04:21:58.222Z,11.80
2018-06-14T04:24:26.711Z,11.80
2018-06-14T04:26:55.323Z,11.80
2018-06-14T04:29:23.863Z,11.90
2018-06-14T04:31:52.334Z,11.90
2018-06-14T04:34:20.835Z,11.90
2018-06-14T04:36:49.283Z,12.00
2018-06-14T04:39:17.772Z,12.00
2018-06-14T04:41:46.209Z,12.00
2018-06-14T04:44:14.728Z,12.10
2018-06-14T04:46:43.258Z,12.10
2018-06-14T04:49:11.774Z,12.10
2018-06-14T04:51:42.869Z,12.10
2018-06-14T04:54:11.580Z,12.20
2018-06-14T04:59:09.700Z,12.30
2018-06-14T05:01:38.190Z,12.40
2018-06-14T05:04:06.813Z,12.40
2018-06-14T05:06:35.324Z,12.50
2018-06-14T05:09:05.842Z,12.60
2018-06-14T05:11:34.290Z,12.60
2018-06-14T05:14:03.091Z,12.70
2018-06-14T05:16:31.541Z,12.80
2018-06-14T05:19:00.163Z,12.80
2018-06-14T05:21:28.714Z,12.90
2018-06-14T05:23:57.366Z,13.00
2018-06-14T05:26:25.862Z,13.00
2018-06-14T05:28:54.494Z,13.00
2018-06-14T05:31:22.971Z,13.10
2018-06-14T05:33:52.004Z,13.10
2018-06-14T05:36:20.626Z,13.20
2018-06-14T05:38:49.347Z,13.20
2018-06-14T05:41:17.865Z,13.30
2018-06-14T05:43:46.406Z,13.30
2018-06-14T05:46:15.355Z,13.40
2018-06-14T05:48:43.910Z,13.50
2018-06-14T05:51:12.735Z,13.50
2018-06-14T05:53:41.371Z,13.60
2018-06-14T05:56:09.978Z,13.60
2018-06-14T05:58:38.453Z,13.70
2018-06-14T06:01:07.134Z,13.70
2018-06-14T06:03:35.693Z,13.80
2018-06-14T06:06:04.275Z,13.80
2018-06-14T06:08:32.766Z,13.90
2018-06-14T06:11:01.477Z,13.90
2018-06-14T06:13:29.918Z,14.00
2018-06-14T06:20:54.746Z,14.20
2018-06-14T06:23:23.237Z,14.20
2018-06-14T06:25:52.011Z,14.30
2018-06-14T06:28:20.679Z,14.40
2018-06-14T06:30:49.163Z,14.40
2018-06-14T06:33:17.884Z,14.50
2018-06-14T06:35:46.368Z,14.60
2018-06-14T06:38:14.918Z,14.70
2018-06-14T06:40:43.483Z,14.80
2018-06-14T06:43:12.094Z,14.90
2018-06-14T06:45:40.583Z,15.00
2018-06-14T06:48:09.527Z,15.10
2018-06-14T06:50:38.034Z,15.20
2018-06-14T06:53:06.884Z,15.30
2018-06-14T06:55:35.306Z,15.30
2018-06-14T06:58:03.842Z,15.40
2018-06-14T07:00:32.306Z,15.50
2018-06-14T07:03:00.789Z,15.60
2018-06-14T07:05:29.238Z,15.70
2018-06-14T07:07:57.771Z,15.80
2018-06-14T07:10:26.262Z,15.90
2018-06-14T07:12:54.743Z,16.00
2018-06-14T07:15:23.212Z,16.00
2018-06-14T07:17:51.690Z,16.10
2018-06-14T07:20:20.190Z,16.20
2018-06-14T07:22:48.839Z,16.20
2018-06-14T07:25:17.494Z,16.30
2018-06-14T07:27:45.970Z,16.40
2018-06-14T07:30:14.604Z,16.50
2018-06-14T07:32:43.131Z,16.60
2018-06-14T07:35:11.728Z,16.70
2018-06-14T07:37:40.224Z,16.80
2018-06-14T07:40:08.834Z,16.80
2018-06-14T07:42:37.523Z,16.90
2018-06-14T07:45:05.979Z,16.90
2018-06-14T07:47:34.786Z,16.90
2018-06-14T07:50:03.435Z,16.90
2018-06-14T07:52:31.923Z,16.90
2018-06-14T07:55:00.574Z,17.00
2018-06-14T07:57:29.073Z,17.00
2018-06-14T07:59:57.583Z,17.10
2018-06-14T08:02:26.060Z,17.10
2018-06-14T08:04:54.895Z,17.10
2018-06-14T08:07:23.398Z,17.20
2018-06-14T08:09:51.866Z,17.20
2018-06-14T08:12:20.481Z,17.30
2018-06-14T08:14:48.935Z,17.40
2018-06-14T08:17:17.503Z,17.50
2018-06-14T08:19:45.994Z,17.60
2018-06-14T08:22:14.520Z,17.70
2018-06-14T08:24:43.115Z,17.80
2018-06-14T08:27:11.580Z,17.80
2018-06-14T08:29:40.121Z,17.90
2018-06-14T08:32:08.675Z,18.00
2018-06-14T08:34:37.275Z,18.00
2018-06-14T08:37:05.871Z,18.10
2018-06-14T08:39:34.391Z,18.10
2018-06-14T08:42:02.994Z,18.10
2018-06-14T08:44:31.550Z,18.10
2018-06-14T08:47:00.169Z,18.20
2018-06-14T08:49:28.737Z,18.20
2018-06-14T08:51:57.379Z,18.30
2018-06-14T08:54:25.890Z,18.30
2018-06-14T08:56:54.363Z,18.40
2018-06-14T08:59:22.949Z,18.50
2018-06-14T09:01:51.421Z,18.60
2018-06-14T09:04:20.117Z,18.60
2018-06-14T09:06:48.623Z,18.80
2018-06-14T09:09:17.282Z,18.80
2018-06-14T09:11:45.774Z,19.00
2018-06-14T09:14:14.500Z,19.00
2018-06-14T09:16:43.015Z,19.00
2018-06-14T09:19:11.474Z,19.00
2018-06-14T09:21:40.189Z,19.00
2018-06-14T09:24:08.943Z,19.00
2018-06-14T09:26:37.455Z,19.00
2018-06-14T09:29:06.095Z,19.10
2018-06-14T09:34:03.123Z,19.30
2018-06-14T09:36:32.966Z,19.30
2018-06-14T09:39:01.602Z,19.10
2018-06-14T09:41:31.852Z,19.00
2018-06-14T09:44:00.431Z,19.00
2018-06-14T09:46:28.984Z,19.10
2018-06-14T09:49:02.712Z,19.20
2018-06-14T09:51:31.214Z,19.40
2018-06-14T09:53:59.847Z,19.40
2018-06-14T09:56:28.784Z,19.50
2018-06-14T09:58:57.347Z,19.60
2018-06-14T10:01:26.271Z,19.80
2018-06-14T10:03:55.246Z,19.70
2018-06-14T10:06:23.824Z,19.70
2018-06-14T10:08:52.303Z,19.80
2018-06-14T10:11:20.848Z,19.90
2018-06-14T10:13:49.435Z,20.10
2018-06-14T10:16:17.976Z,20.20
2018-06-14T10:18:46.543Z,20.20
2018-06-14T10:21:15.063Z,20.20
2018-06-14T10:23:43.572Z,20.30
2018-06-14T10:26:12.297Z,20.50
2018-06-14T10:28:40.763Z,20.50
2018-06-14T10:31:09.335Z,20.50
2018-06-14T10:33:37.910Z,20.50
2018-06-14T10:36:06.519Z,20.60
2018-06-14T10:38:35.000Z,20.60
2018-06-14T10:41:03.499Z,20.60
2018-06-14T10:46:00.212Z,20.70
2018-06-14T10:48:28.690Z,20.70
2018-06-14T10:50:57.727Z,20.60
2018-06-14T10:53:26.306Z,20.80
2018-06-14T10:55:54.899Z,20.80
2018-06-14T10:58:23.370Z,20.80
2018-06-14T11:03:20.170Z,21.00
2018-06-14T11:05:48.831Z,21.00
2018-06-14T11:08:17.323Z,21.10
2018-06-14T11:10:45.997Z,21.10
2018-06-14T11:13:14.741Z,21.30
2018-06-14T11:15:43.189Z,21.10
2018-06-14T11:18:11.911Z,21.00
2018-06-14T11:20:40.383Z,21.00
2018-06-14T11:23:09.208Z,21.00
2018-06-14T11:25:37.766Z,20.90
2018-06-14T11:28:06.271Z,20.80
2018-06-14T11:30:34.748Z,21.00
2018-06-14T11:33:03.391Z,21.00
2018-06-14T11:35:31.923Z,20.90
2018-06-14T11:38:00.428Z,20.90
2018-06-14T11:40:28.939Z,20.90
2018-06-14T11:42:57.441Z,20.90
2018-06-14T11:45:26.335Z,20.80
2018-06-14T11:47:54.903Z,20.90
2018-06-14T11:50:23.584Z,20.90
2018-06-14T11:52:52.126Z,21.00
2018-06-14T11:55:20.760Z,21.00
2018-06-14T11:57:49.330Z,21.10
2018-06-14T12:00:17.807Z,21.20
2018-06-14T12:02:46.291Z,21.30
2018-06-14T12:05:14.813Z,21.40
2018-06-14T12:07:43.475Z,21.20
2018-06-14T12:10:11.947Z,21.30
2018-06-14T12:12:40.427Z,21.20
2018-06-14T12:15:08.975Z,21.20
2018-06-14T12:17:37.582Z,21.20
2018-06-14T12:20:06.042Z,21.00
2018-06-14T12:22:34.608Z,21.10
2018-06-14T12:25:03.103Z,21.10
2018-06-14T12:27:31.619Z,21.20
2018-06-14T12:30:00.403Z,21.00
2018-06-14T12:32:28.876Z,20.90
2018-06-14T12:34:57.441Z,20.90
2018-06-14T12:37:25.896Z,21.10
2018-06-14T12:39:54.535Z,21.10
2018-06-14T12:42:22.995Z,21.20
2018-06-14T12:44:51.559Z,21.20
2018-06-14T12:47:20.163Z,21.20
2018-06-14T12:49:48.633Z,21.30
2018-06-14T12:52:17.422Z,21.30
2018-06-14T12:54:45.897Z,21.40
2018-06-14T12:57:14.468Z,21.50
2018-06-14T12:59:43.072Z,21.40
2018-06-14T13:02:11.993Z,21.30
2018-06-14T13:04:40.536Z,21.30
2018-06-14T13:07:09.060Z,21.40
2018-06-14T13:09:37.734Z,21.50
2018-06-14T13:12:06.519Z,21.50
2018-06-14T13:14:35.223Z,21.40
2018-06-14T13:17:03.731Z,21.40
2018-06-14T13:19:32.490Z,21.30
2018-06-14T13:22:01.240Z,21.30
2018-06-14T13:24:39.887Z,21.30
2018-06-14T13:27:08.462Z,21.20
2018-06-14T13:29:36.979Z,21.10
2018-06-14T13:32:05.458Z,21.00
2018-06-14T13:34:34.507Z,21.00
2018-06-14T13:37:03.136Z,20.90
2018-06-14T13:39:31.606Z,20.90
2018-06-14T13:42:00.178Z,20.90
2018-06-14T13:44:28.743Z,20.90
2018-06-14T13:46:57.456Z,20.90
2018-06-14T13:49:25.950Z,21.00
2018-06-14T13:51:54.551Z,21.00
2018-06-14T13:54:23.017Z,21.00
2018-06-14T13:56:52.288Z,20.90
2018-06-14T13:59:20.755Z,20.90
2018-06-14T14:01:49.250Z,20.90
2018-06-14T14:04:17.900Z,20.80
2018-06-14T14:06:46.375Z,20.70
2018-06-14T14:09:14.947Z,20.60
2018-06-14T14:11:43.975Z,20.60
2018-06-14T14:14:12.506Z,20.60
2018-06-14T14:16:40.962Z,20.60
2018-06-14T14:19:09.591Z,20.60
2018-06-14T14:21:38.136Z,20.60
2018-06-14T14:24:06.606Z,20.70
2018-06-14T14:26:35.270Z,20.60
2018-06-14T14:29:03.705Z,20.60
2018-06-14T14:31:32.304Z,20.60
2018-06-14T14:34:00.857Z,20.50
2018-06-14T14:36:29.343Z,20.50
2018-06-14T14:38:57.829Z,20.60
2018-06-14T14:41:26.440Z,20.60
2018-06-14T14:43:55.012Z,20.70
2018-06-14T14:46:23.868Z,20.70
2018-06-14T14:48:52.394Z,20.70
2018-06-14T14:51:20.942Z,20.60
2018-06-14T14:53:49.690Z,20.50
2018-06-14T14:56:18.187Z,20.50
2018-06-14T14:58:46.774Z,20.40
2018-06-14T15:01:15.288Z,20.40
2018-06-14T15:03:44.253Z,20.30
2018-06-14T15:06:13.066Z,20.30
2018-06-14T15:08:41.647Z,20.30
2018-06-14T15:11:10.230Z,20.30
2018-06-14T15:13:38.742Z,20.30
2018-06-14T15:16:07.234Z,20.30
2018-06-14T15:18:35.758Z,20.30
2018-06-14T15:21:04.366Z,20.30
2018-06-14T15:23:32.938Z,20.30
2018-06-14T15:26:01.581Z,20.30
2018-06-14T15:28:30.298Z,20.40
2018-06-14T15:30:58.896Z,20.40
2018-06-14T15:33:27.391Z,20.40
2018-06-14T15:35:56.104Z,20.30
2018-06-14T15:40:52.928Z,20.30
2018-06-14T15:43:21.476Z,20.30
2018-06-14T15:45:50.215Z,20.30
2018-06-14T15:48:19.135Z,20.30
2018-06-14T15:50:47.799Z,20.30
2018-06-14T15:53:16.352Z,20.20
2018-06-14T15:56:05.280Z,20.20
2018-06-14T15:58:33.873Z,20.20
2018-06-14T16:01:02.375Z,20.20
2018-06-14T16:03:31.074Z,20.10
2018-06-14T16:05:59.764Z,20.10
2018-06-14T16:08:28.415Z,20.10
2018-06-14T16:10:56.982Z,20.10
2018-06-14T16:13:25.638Z,20.00
2018-06-14T16:15:54.119Z,20.10
2018-06-14T16:18:22.634Z,20.00
2018-06-14T16:20:51.148Z,20.00
2018-06-14T16:23:19.782Z,20.00
2018-06-14T16:25:48.291Z,19.90
2018-06-14T16:28:16.787Z,19.90
2018-06-14T16:30:45.394Z,19.80
2018-06-14T16:33:13.955Z,19.80
2018-06-14T16:35:42.701Z,19.60
2018-06-14T16:38:11.370Z,19.50
2018-06-14T16:40:39.880Z,19.20
2018-06-14T16:43:08.423Z,19.00
2018-06-14T16:45:36.980Z,18.80
2018-06-14T16:48:05.875Z,18.70
2018-06-14T16:50:34.376Z,18.40
2018-06-14T16:53:03.164Z,18.20
2018-06-14T16:57:59.976Z,17.90
2018-06-14T17:00:28.524Z,17.70
2018-06-14T17:02:57.276Z,17.60
2018-06-14T17:05:25.844Z,17.40
2018-06-14T17:07:54.336Z,17.30
2018-06-14T17:10:22.906Z,17.20
2018-06-14T17:12:51.535Z,17.10
2018-06-14T17:15:20.317Z,17.00
2018-06-14T17:17:49.106Z,16.90
2018-06-14T17:20:17.838Z,16.90
2018-06-14T17:22:46.486Z,16.90
2018-06-14T17:25:15.011Z,16.80
2018-06-14T17:27:43.556Z,16.70
2018-06-14T17:30:12.176Z,16.70
2018-06-14T17:32:41.079Z,16.80
2018-06-14T17:35:09.610Z,16.80
2018-06-14T17:37:38.201Z,16.80
2018-06-14T17:40:07.043Z,16.80
2018-06-14T17:42:35.529Z,16.80
2018-06-14T17:47:32.430Z,16.90
2018-06-14T17:50:00.906Z,16.90
2018-06-14T17:52:29.452Z,16.90
2018-06-14T17:54:58.127Z,16.80
2018-06-14T17:57:26.761Z,16.80
2018-06-14T17:59:55.400Z,16.80
2018-06-14T18:02:24.125Z,16.80
2018-06-14T18:04:52.733Z,16.90
2018-06-14T18:07:21.459Z,16.90
2018-06-14T18:09:50.151Z,16.90
2018-06-14T18:12:18.727Z,16.90
2018-06-14T18:14:47.287Z,17.00
2018-06-14T18:17:15.853Z,17.00
2018-06-14T18:19:44.502Z,17.00
2018-06-14T18:22:13.028Z,17.00
2018-06-14T18:24:41.676Z,17.00
2018-06-14T18:27:10.451Z,16.90
2018-06-14T18:29:39.268Z,17.00
2018-06-14T18:32:07.998Z,16.90
2018-06-14T18:34:36.744Z,16.90
2018-06-14T18:37:05.563Z,16.90
2018-06-14T18:39:34.211Z,16.90
2018-06-14T18:42:02.997Z,16.90
2018-06-14T18:44:31.743Z,16.90
2018-06-14T18:47:00.346Z,16.90
2018-06-14T18:49:28.879Z,16.90
2018-06-14T18:51:57.440Z,17.00
2018-06-14T18:54:26.082Z,16.90
2018-06-14T18:56:54.892Z,16.90
2018-06-14T18:59:23.419Z,16.90
2018-06-14T19:04:20.333Z,16.80
2018-06-14T19:06:48.845Z,16.80
2018-06-14T19:09:17.521Z,16.80
2018-06-14T19:11:46.028Z,16.80
2018-06-14T19:14:14.602Z,16.80
2018-06-14T19:16:43.153Z,16.80
2018-06-14T19:19:11.798Z,16.80
2018-06-14T19:21:40.416Z,16.80
2018-06-14T19:24:09.154Z,16.70
2018-06-14T19:26:37.911Z,16.70
2018-06-14T19:29:06.880Z,16.70
2018-06-14T19:31:35.547Z,16.70
2018-06-14T19:34:04.218Z,16.70
2018-06-14T19:36:32.762Z,16.80
2018-06-14T19:39:01.314Z,16.80
2018-06-14T19:41:29.915Z,16.80
2018-06-14T19:43:58.680Z,16.80
2018-06-14T19:46:27.358Z,16.70
2018-06-14T19:48:56.195Z,16.70
2018-06-14T19:51:24.739Z,16.70
2018-06-14T19:53:53.268Z,16.70
2018-06-14T19:56:21.891Z,16.60
2018-06-14T19:58:50.762Z,16.70
2018-06-14T20:03:47.586Z,16.60
2018-06-14T20:06:16.227Z,16.60
2018-06-14T20:08:44.830Z,16.60
2018-06-14T20:11:13.475Z,16.60
2018-06-14T20:13:42.072Z,16.60
2018-06-14T20:16:10.712Z,16.60
2018-06-14T20:18:39.203Z,16.60
2018-06-14T20:21:07.863Z,16.60
2018-06-14T20:23:36.348Z,16.60
2018-06-14T20:26:04.984Z,16.60
2018-06-14T20:28:33.701Z,16.60
2018-06-14T20:31:02.310Z,16.60
2018-06-14T20:33:30.970Z,16.50
2018-06-14T20:35:59.488Z,16.50
2018-06-14T20:38:28.186Z,16.50
2018-06-14T20:40:56.952Z,16.50
2018-06-14T20:43:25.633Z,16.40
2018-06-14T20:45:54.212Z,16.40
2018-06-14T20:48:22.967Z,16.40
2018-06-14T20:53:20.134Z,16.30
2018-06-14T20:55:48.698Z,16.30
2018-06-14T20:58:17.263Z,16.30
2018-06-14T21:00:45.825Z,16.30
2018-06-14T21:03:14.400Z,16.30
2018-06-14T21:05:43.256Z,16.30
2018-06-14T21:08:11.772Z,16.30
2018-06-14T21:10:40.470Z,16.30
2018-06-14T21:13:09.104Z,16.20
2018-06-14T21:15:37.598Z,16.30
2018-06-14T21:18:06.151Z,16.20
2018-06-14T21:20:34.675Z,16.20
2018-06-14T21:23:04.031Z,16.20
2018-06-14T21:25:32.570Z,16.30
2018-06-14T21:28:02.000Z,16.20
2018-06-14T21:30:30.545Z,16.30
2018-06-14T21:32:59.204Z,16.20
2018-06-14T21:35:27.882Z,16.20
2018-06-14T21:37:56.555Z,16.20
2018-06-14T21:40:25.351Z,16.20
2018-06-14T21:42:54.147Z,16.20
2018-06-14T21:45:22.998Z,16.20
2018-06-14T21:47:51.569Z,16.20
2018-06-14T21:50:20.107Z,16.20
2018-06-14T21:52:48.947Z,16.20
2018-06-14T21:55:17.585Z,16.20
2018-06-14T21:57:46.147Z,16.20
2018-06-14T22:00:14.678Z,16.10
2018-06-14T22:02:48.749Z,16.10
2018-06-14T22:05:18.429Z,16.10
2018-06-14T22:07:46.951Z,16.10
2018-06-14T22:10:15.645Z,16.20
2018-06-14T22:12:44.130Z,16.10
2018-06-14T22:15:12.594Z,16.20
2018-06-14T22:17:41.226Z,16.20
2018-06-14T22:20:09.691Z,16.20
2018-06-14T22:22:38.382Z,16.20
2018-06-14T22:25:06.856Z,16.20
2018-06-14T22:27:35.551Z,16.20
2018-06-14T22:30:04.656Z,16.20
2018-06-14T22:32:33.391Z,16.20
2018-06-14T22:35:38.059Z,16.20
2018-06-14T22:38:06.615Z,16.20
2018-06-14T22:40:35.070Z,16.20
2018-06-14T22:43:03.663Z,16.20
2018-06-14T22:45:32.148Z,16.20
2018-06-14T22:48:00.855Z,16.20
2018-06-14T22:50:40.674Z,16.20
2018-06-14T22:53:10.139Z,16.20
2018-06-14T22:55:38.878Z,16.10
2018-06-14T22:58:07.451Z,16.10
2018-06-14T23:00:50.718Z,16.10
2018-06-14T23:03:19.261Z,16.10
2018-06-14T23:05:47.731Z,16.10
2018-06-14T23:08:16.215Z,16.20
2018-06-14T23:10:55.927Z,16.10
2018-06-14T23:13:24.442Z,16.10
2018-06-14T23:15:52.943Z,16.10
2018-06-14T23:18:21.446Z,16.10
2018-06-14T23:20:49.898Z,16.00
2018-06-14T23:23:18.495Z,16.00
2018-06-14T23:25:46.972Z,16.00
2018-06-14T23:30:43.617Z,16.00
2018-06-14T23:33:12.183Z,16.00
2018-06-14T23:35:40.670Z,16.00
2018-06-14T23:38:09.247Z,16.00
2018-06-14T23:40:37.796Z,16.00
2018-06-14T23:43:06.650Z,16.00
2018-06-14T23:45:35.125Z,16.00
2018-06-14T23:48:03.605Z,16.10
2018-06-14T23:50:32.111Z,16.10
2018-06-14T23:53:00.763Z,16.00
2018-06-14T23:55:29.321Z,16.00
2018-06-14T23:57:57.924Z,16.00
